Time;durP1;ratioP1;P1;durP2;ratioP2;P2;SDS_P1;SDS_P2;PMS_P1;PMS_P2;Temp;Humidity;BMP_temperature;BMP_pressure;BME280_temperature;BME280_humidity;BME280_pressure;Samples;Min_cycle;Max_cycle;Signal;HPM_P1;HPM_P2
2022/11/14 00:00:59;;;;;;;26.65;19.52;;;8.40;99.90;;;;;;5048178;28;20037;-60
2022/11/14 00:03:24;;;;;;;27.38;19.30;;;8.40;99.90;;;;;;5042925;28;20036;-59
2022/11/14 00:05:50;;;;;;;29.58;19.55;;;8.40;99.90;;;;;;5049709;28;20040;-60
2022/11/14 00:08:24;;;;;;;27.80;19.15;;;8.40;99.90;;;;;;5051562;28;20017;-61
2022/11/14 00:10:50;;;;;;;25.33;18.33;;;8.30;99.90;;;;;;5049887;28;20028;-61
2022/11/14 00:13:17;;;;;;;28.13;18.80;;;8.30;99.90;;;;;;5049477;28;20043;-61
2022/11/14 00:15:43;;;;;;;27.80;19.52;;;8.30;99.90;;;;;;5050002;28;20468;-59
2022/11/14 00:18:09;;;;;;;27.73;20.50;;;8.30;99.90;;;;;;5049382;28;20032;-60
2022/11/14 00:20:34;;;;;;;27.17;19.77;;;8.30;99.90;;;;;;5043558;28;20155;-61
2022/11/14 00:23:00;;;;;;;33.92;20.73;;;8.30;99.90;;;;;;5049704;28;20055;-60
2022/11/14 00:25:25;;;;;;;31.48;21.27;;;8.20;99.90;;;;;;5050036;28;20636;-61
2022/11/14 00:27:51;;;;;;;30.75;21.00;;;8.20;99.90;;;;;;5049243;28;20178;-61
2022/11/14 00:30:17;;;;;;;27.20;20.27;;;8.20;99.90;;;;;;5039421;28;20048;-61
2022/11/14 00:32:42;;;;;;;29.20;20.85;;;8.20;99.90;;;;;;5049074;28;20017;-62
2022/11/14 00:35:08;;;;;;;33.72;21.90;;;8.20;99.90;;;;;;5040668;28;20033;-61
2022/11/14 00:37:34;;;;;;;30.95;20.02;;;8.20;99.90;;;;;;5049433;28;20028;-61
2022/11/14 00:40:00;;;;;;;29.42;20.70;;;8.20;99.90;;;;;;5049338;28;20108;-61
2022/11/14 00:42:25;;;;;;;31.60;20.67;;;8.10;99.90;;;;;;5045158;28;20175;-61
2022/11/14 00:44:51;;;;;;;34.85;20.75;;;8.00;99.90;;;;;;5048911;28;20028;-60
2022/11/14 00:47:16;;;;;;;29.58;19.75;;;8.00;99.90;;;;;;5049169;28;20047;-61
2022/11/14 00:49:42;;;;;;;30.83;21.25;;;7.90;99.90;;;;;;5049029;28;20032;-61
2022/11/14 00:52:07;;;;;;;30.15;20.80;;;7.90;99.90;;;;;;5046235;28;20094;-60
2022/11/14 00:54:33;;;;;;;28.02;19.65;;;8.00;99.90;;;;;;5046569;28;20040;-59
2022/11/14 00:56:59;;;;;;;30.80;19.95;;;7.90;99.90;;;;;;5049128;28;20025;-60
2022/11/14 00:59:24;;;;;;;29.17;20.45;;;7.90;99.90;;;;;;5048836;28;20493;-57
2022/11/14 01:01:53;;;;;;;30.10;21.50;;;7.80;99.90;;;;;;5048878;28;20028;-59
2022/11/14 01:04:18;;;;;;;33.72;21.23;;;7.80;99.90;;;;;;5049186;28;20042;-58
2022/11/14 01:06:44;;;;;;;32.15;21.00;;;7.80;99.90;;;;;;5049210;28;20029;-59
2022/11/14 01:09:09;;;;;;;27.55;19.48;;;7.80;99.90;;;;;;5048762;28;20036;-60
2022/11/14 01:11:35;;;;;;;33.35;21.38;;;7.70;99.90;;;;;;5045359;28;20025;-61
2022/11/14 01:14:00;;;;;;;27.17;20.42;;;7.70;99.90;;;;;;5048877;28;20056;-60
2022/11/14 01:16:26;;;;;;;32.35;22.23;;;7.70;99.90;;;;;;5042842;28;20068;-61
2022/11/14 01:18:52;;;;;;;28.75;19.90;;;7.70;99.90;;;;;;5038235;28;20029;-60
2022/11/14 01:21:17;;;;;;;28.42;19.73;;;7.70;99.90;;;;;;5048702;28;20090;-60
2022/11/14 01:23:43;;;;;;;31.77;21.60;;;7.70;99.90;;;;;;5039618;28;20017;-59
2022/11/14 01:26:10;;;;;;;31.30;20.33;;;7.70;99.90;;;;;;5048463;28;20033;-60
2022/11/14 01:28:37;;;;;;;31.30;20.70;;;7.70;99.90;;;;;;5041839;28;20022;-60
2022/11/14 01:31:29;;;;;;;30.17;20.75;;;7.60;99.90;;;;;;5042519;28;20021;-59
2022/11/14 01:33:54;;;;;;;33.13;20.73;;;7.60;99.90;;;;;;5046268;28;20065;-61
2022/11/14 01:36:21;;;;;;;30.05;20.88;;;7.60;99.90;;;;;;5048597;28;20076;-60
2022/11/14 01:38:51;;;;;;;30.23;21.65;;;7.60;99.90;;;;;;5045794;28;20029;-61
2022/11/14 01:41:17;;;;;;;30.63;20.88;;;7.60;99.90;;;;;;5044134;28;20135;-60
2022/11/14 01:43:43;;;;;;;28.95;21.15;;;7.60;99.90;;;;;;5048759;28;20500;-60
2022/11/14 01:46:23;;;;;;;30.95;20.55;;;7.60;99.90;;;;;;5048523;28;20033;-60
2022/11/14 01:49:00;;;;;;;31.83;21.15;;;7.60;99.90;;;;;;5048367;28;20115;-60
2022/11/14 01:51:33;;;;;;;33.17;21.17;;;7.50;99.90;;;;;;5031937;28;20028;-60
2022/11/14 01:54:02;;;;;;;32.03;20.83;;;7.50;99.90;;;;;;5048629;28;20079;-60
2022/11/14 01:56:42;;;;;;;34.90;21.77;;;7.50;99.90;;;;;;5047810;28;20029;-61
2022/11/14 01:59:17;;;;;;;33.17;20.52;;;7.50;99.90;;;;;;5046162;28;20056;-60
2022/11/14 02:01:46;;;;;;;30.88;21.63;;;7.50;99.90;;;;;;5044432;28;20039;-60
2022/11/14 02:04:18;;;;;;;30.35;20.05;;;7.50;99.90;;;;;;5046315;28;20111;-60
2022/11/14 02:06:45;;;;;;;29.48;20.85;;;7.50;99.90;;;;;;5036454;28;20027;-60
2022/11/14 02:09:11;;;;;;;34.45;21.30;;;7.50;99.90;;;;;;5048049;28;20377;-61
2022/11/14 02:11:40;;;;;;;41.42;22.48;;;7.50;99.90;;;;;;5046920;28;20078;-59
2022/11/14 02:14:06;;;;;;;33.05;22.35;;;7.50;99.90;;;;;;5045941;28;20022;-60
2022/11/14 02:16:32;;;;;;;35.38;22.63;;;7.50;99.90;;;;;;5037386;28;20025;-61
2022/11/14 02:18:58;;;;;;;30.17;21.10;;;7.50;99.90;;;;;;5047970;28;20025;-60
2022/11/14 02:21:23;;;;;;;32.83;21.52;;;7.50;99.90;;;;;;5043598;28;20040;-61
2022/11/14 02:23:49;;;;;;;32.75;20.63;;;7.50;99.90;;;;;;5048183;28;20036;-61
2022/11/14 02:26:20;;;;;;;30.58;20.05;;;7.50;99.90;;;;;;5047994;28;20112;-60
2022/11/14 02:28:46;;;;;;;34.00;21.30;;;7.50;99.90;;;;;;5048526;28;20099;-61
2022/11/14 02:31:12;;;;;;;36.10;21.27;;;7.40;99.90;;;;;;5050117;28;20021;-61
2022/11/14 02:33:38;;;;;;;31.38;21.88;;;7.40;99.90;;;;;;5049895;28;20036;-60
2022/11/14 02:36:03;;;;;;;35.28;22.50;;;7.40;99.90;;;;;;5051445;28;20031;-61
2022/11/14 02:38:29;;;;;;;32.72;22.15;;;7.40;99.90;;;;;;5051809;28;20025;-60
2022/11/14 02:40:55;;;;;;;35.55;22.98;;;7.40;99.90;;;;;;5051006;28;20075;-58
2022/11/14 02:43:20;;;;;;;33.42;20.55;;;7.40;99.90;;;;;;5051705;28;20037;-61
2022/11/14 02:45:46;;;;;;;33.85;21.02;;;7.40;99.90;;;;;;5051325;28;20082;-60
2022/11/14 02:48:11;;;;;;;32.67;21.85;;;7.40;99.90;;;;;;5075259;22;20044;-53
2022/11/14 02:50:37;;;;;;;31.95;21.67;;;7.40;99.90;;;;;;5088668;28;20024;-56
2022/11/14 02:53:02;;;;;;;33.45;22.98;;;7.30;99.90;;;;;;5089571;28;20099;-53
2022/11/14 02:55:28;;;;;;;31.10;21.77;;;7.30;99.90;;;;;;5088256;28;20118;-51
2022/11/14 02:57:53;;;;;;;30.73;22.08;;;7.30;99.90;;;;;;5087863;28;20051;-52
2022/11/14 03:00:19;;;;;;;35.08;21.88;;;7.30;99.90;;;;;;5088080;28;20036;-53
2022/11/14 03:02:45;;;;;;;33.78;21.38;;;7.30;99.90;;;;;;5089671;28;20032;-50
2022/11/14 03:05:10;;;;;;;31.27;21.13;;;7.30;99.90;;;;;;5090282;28;20032;-50
2022/11/14 03:07:36;;;;;;;31.13;21.15;;;7.30;99.90;;;;;;5074974;28;20031;-51
2022/11/14 03:10:02;;;;;;;33.45;22.02;;;7.30;99.90;;;;;;5089750;28;20028;-55
2022/11/14 03:12:27;;;;;;;34.40;21.35;;;7.30;99.90;;;;;;5088203;28;20020;-53
2022/11/14 03:14:53;;;;;;;32.88;21.52;;;7.30;99.90;;;;;;5087723;28;20089;-55
2022/11/14 03:17:18;;;;;;;32.65;21.23;;;7.30;99.90;;;;;;5091198;28;20032;-54
2022/11/14 03:19:44;;;;;;;30.75;21.27;;;7.30;99.90;;;;;;5087761;28;20080;-50
2022/11/14 03:22:09;;;;;;;33.22;21.65;;;7.30;99.90;;;;;;5091060;28;20032;-51
2022/11/14 03:24:35;;;;;;;29.27;20.73;;;7.30;99.90;;;;;;5091151;28;20024;-52
2022/11/14 03:27:00;;;;;;;32.05;23.02;;;7.30;99.90;;;;;;5090906;28;20027;-55
2022/11/14 03:29:26;;;;;;;30.38;19.98;;;7.30;99.90;;;;;;5083400;28;20024;-53
2022/11/14 03:31:51;;;;;;;33.30;21.17;;;7.30;99.90;;;;;;5090124;28;20027;-53
2022/11/14 03:34:17;;;;;;;31.02;21.90;;;7.30;99.90;;;;;;5084992;28;20484;-53
2022/11/14 03:36:43;;;;;;;31.38;21.90;;;7.30;99.90;;;;;;5090787;28;20418;-55
2022/11/14 03:39:08;;;;;;;34.50;22.30;;;7.30;99.90;;;;;;5090121;28;20554;-53
2022/11/14 03:41:34;;;;;;;35.53;22.20;;;7.30;99.90;;;;;;5089207;28;20690;-54
2022/11/14 03:43:59;;;;;;;33.28;21.92;;;7.30;99.90;;;;;;5090558;28;20030;-54
2022/11/14 03:46:25;;;;;;;30.85;20.83;;;7.30;99.90;;;;;;5090573;28;20614;-55
2022/11/14 03:48:50;;;;;;;30.40;20.63;;;7.30;99.90;;;;;;5089924;28;20103;-54
2022/11/14 03:51:16;;;;;;;36.78;24.25;;;7.20;99.90;;;;;;5090558;28;20111;-54
2022/11/14 03:53:41;;;;;;;32.75;22.63;;;7.30;99.90;;;;;;5090570;28;20392;-56
2022/11/14 03:56:07;;;;;;;34.53;23.38;;;7.30;99.90;;;;;;5088918;28;20392;-54
2022/11/14 03:58:32;;;;;;;32.80;21.27;;;7.20;99.90;;;;;;5090623;28;20517;-54
2022/11/14 04:00:58;;;;;;;35.45;22.58;;;7.20;99.90;;;;;;5087907;28;20553;-54
2022/11/14 04:03:24;;;;;;;31.73;21.10;;;7.30;99.90;;;;;;5090142;28;20119;-56
2022/11/14 04:05:49;;;;;;;31.80;21.88;;;7.20;99.90;;;;;;5090144;28;20095;-56
2022/11/14 04:08:15;;;;;;;34.20;22.70;;;7.20;99.90;;;;;;5090282;28;20373;-55
2022/11/14 04:10:41;;;;;;;36.55;22.23;;;7.20;99.90;;;;;;5084250;28;20020;-52
2022/11/14 04:13:07;;;;;;;35.97;23.05;;;7.20;99.90;;;;;;5069953;28;20476;-55
2022/11/14 04:15:33;;;;;;;34.42;22.33;;;7.20;99.90;;;;;;5087770;28;20028;-56
2022/11/14 04:17:59;;;;;;;32.90;21.55;;;7.20;99.90;;;;;;5088754;28;20507;-56
2022/11/14 04:20:25;;;;;;;35.20;22.65;;;7.20;99.90;;;;;;5088907;28;20066;-51
2022/11/14 04:22:50;;;;;;;30.67;21.98;;;7.20;99.90;;;;;;5089678;28;20031;-54
2022/11/14 04:25:16;;;;;;;35.03;21.40;;;7.20;99.90;;;;;;5089871;28;20073;-51
2022/11/14 04:27:42;;;;;;;34.92;22.52;;;7.30;99.90;;;;;;5089703;28;20146;-54
2022/11/14 04:30:09;;;;;;;33.55;22.27;;;7.30;99.90;;;;;;5088413;28;20023;-50
2022/11/14 04:32:34;;;;;;;33.80;21.52;;;7.30;99.90;;;;;;5089487;28;20016;-58
2022/11/14 04:35:00;;;;;;;35.40;22.23;;;7.30;99.90;;;;;;5089263;28;20408;-56
2022/11/14 04:37:26;;;;;;;32.45;20.38;;;7.20;99.90;;;;;;5073128;28;20024;-53
2022/11/14 04:39:51;;;;;;;29.25;20.80;;;7.20;99.90;;;;;;5078423;28;20028;-52
2022/11/14 04:42:17;;;;;;;35.88;21.98;;;7.20;99.90;;;;;;5089443;28;20020;-55
2022/11/14 04:44:42;;;;;;;34.72;22.20;;;7.20;99.90;;;;;;5085137;28;20036;-56
2022/11/14 04:47:08;;;;;;;35.42;22.38;;;7.20;99.90;;;;;;5089767;28;20024;-50
2022/11/14 04:49:34;;;;;;;32.00;22.15;;;7.20;99.90;;;;;;5071048;28;20488;-54
2022/11/14 04:51:59;;;;;;;32.33;21.40;;;7.20;99.90;;;;;;5089431;28;20020;-54
2022/11/14 04:54:25;;;;;;;35.67;22.40;;;7.20;99.90;;;;;;5089240;28;20032;-52
2022/11/14 04:56:50;;;;;;;32.65;22.50;;;7.20;99.90;;;;;;5089565;28;20024;-52
2022/11/14 04:59:16;;;;;;;32.40;20.98;;;7.20;99.90;;;;;;5089429;28;20042;-54
2022/11/14 05:01:41;;;;;;;34.22;23.17;;;7.10;99.90;;;;;;5088636;28;20036;-55
2022/11/14 05:04:07;;;;;;;36.22;22.45;;;7.10;99.90;;;;;;5089206;28;20024;-52
2022/11/14 05:06:32;;;;;;;32.83;21.42;;;7.10;99.90;;;;;;5086383;28;20024;-55
2022/11/14 05:08:58;;;;;;;33.72;21.70;;;7.10;99.90;;;;;;5081760;28;20091;-53
2022/11/14 05:11:23;;;;;;;34.42;21.95;;;7.10;99.90;;;;;;5071238;28;20049;-51
2022/11/14 05:13:49;;;;;;;31.85;20.88;;;7.10;99.90;;;;;;5083979;28;21532;-55
2022/11/14 05:16:15;;;;;;;33.15;20.52;;;7.10;99.90;;;;;;5089172;28;20024;-54
2022/11/14 05:18:40;;;;;;;32.83;21.20;;;7.10;99.90;;;;;;5089116;28;20401;-51
2022/11/14 05:21:06;;;;;;;34.17;22.10;;;7.10;99.90;;;;;;5088903;28;20399;-55
2022/11/14 05:23:31;;;;;;;32.08;22.25;;;7.10;99.90;;;;;;5088572;28;20574;-51
2022/11/14 05:26:05;;;;;;;33.47;22.83;;;7.10;99.90;;;;;;5088161;28;20160;-51
2022/11/14 05:28:31;;;;;;;28.35;20.60;;;7.10;99.90;;;;;;5076700;28;20020;-53
2022/11/14 05:31:05;;;;;;;34.47;22.70;;;7.10;99.90;;;;;;5086159;28;20032;-52
2022/11/14 05:33:31;;;;;;;32.67;21.73;;;7.10;99.90;;;;;;5085965;28;20039;-56
2022/11/14 05:36:12;;;;;;;32.70;22.75;;;7.00;99.90;;;;;;5086383;28;20030;-55
2022/11/14 05:38:37;;;;;;;30.75;22.08;;;7.10;99.90;;;;;;5064129;28;20566;-56
2022/11/14 05:41:08;;;;;;;37.97;23.67;;;7.00;99.90;;;;;;5088508;28;20161;-53
2022/11/14 05:43:33;;;;;;;33.67;22.27;;;7.00;99.90;;;;;;5083236;28;20383;-57
2022/11/14 05:46:04;;;;;;;33.00;22.63;;;7.00;99.90;;;;;;5088450;28;20027;-55
2022/11/14 05:48:30;;;;;;;35.25;23.63;;;7.10;99.90;;;;;;5088453;28;20035;-52
2022/11/14 05:50:58;;;;;;;32.60;21.38;;;7.00;99.90;;;;;;5088526;28;20099;-52
2022/11/14 05:53:24;;;;;;;37.13;23.02;;;7.00;99.90;;;;;;5088167;28;20027;-55
2022/11/14 05:55:50;;;;;;;35.60;23.48;;;7.00;99.90;;;;;;5088696;28;20549;-51
2022/11/14 05:58:16;;;;;;;32.70;22.52;;;7.00;99.90;;;;;;5088207;28;20028;-52
2022/11/14 06:00:42;;;;;;;33.67;21.77;;;7.00;99.90;;;;;;5088530;28;20036;-54
2022/11/14 06:03:08;;;;;;;37.95;23.73;;;7.00;99.90;;;;;;5086329;28;20082;-52
2022/11/14 06:05:34;;;;;;;30.80;22.20;;;7.00;99.90;;;;;;5088509;28;20038;-53
2022/11/14 06:08:00;;;;;;;30.70;20.58;;;7.00;99.90;;;;;;5092108;28;20400;-52
2022/11/14 06:10:26;;;;;;;33.30;22.02;;;7.00;99.90;;;;;;5092283;28;20034;-54
2022/11/14 06:12:51;;;;;;;35.90;23.50;;;7.00;99.90;;;;;;5087419;28;20035;-51
2022/11/14 06:15:17;;;;;;;34.35;21.65;;;7.00;99.90;;;;;;5086564;28;20024;-55
2022/11/14 06:17:43;;;;;;;35.67;22.90;;;7.00;99.90;;;;;;5092568;28;20032;-54
2022/11/14 06:20:09;;;;;;;37.15;23.20;;;7.00;99.90;;;;;;5092239;28;20044;-54
2022/11/14 06:22:35;;;;;;;34.78;21.88;;;6.90;99.90;;;;;;5077286;28;20020;-54
2022/11/14 06:25:01;;;;;;;33.60;21.05;;;6.90;99.90;;;;;;5087415;28;20083;-53
2022/11/14 06:27:27;;;;;;;32.85;22.02;;;6.90;99.90;;;;;;5092522;28;20099;-54
2022/11/14 06:29:52;;;;;;;38.00;24.05;;;6.90;99.90;;;;;;5086736;28;20104;-55
2022/11/14 06:32:18;;;;;;;33.60;22.08;;;6.90;99.90;;;;;;5090428;28;20056;-54
2022/11/14 06:34:43;;;;;;;33.50;21.65;;;6.90;99.90;;;;;;5092603;28;20026;-56
2022/11/14 06:37:09;;;;;;;35.80;24.52;;;6.90;99.90;;;;;;5090718;28;20028;-51
2022/11/14 06:39:34;;;;;;;35.40;22.85;;;7.00;99.90;;;;;;5092105;28;20411;-54
2022/11/14 06:42:00;;;;;;;32.60;21.98;;;7.00;99.90;;;;;;5092189;28;20020;-54
2022/11/14 06:44:26;;;;;;;34.85;22.08;;;7.00;99.90;;;;;;5091911;28;20493;-54
2022/11/14 06:46:51;;;;;;;33.67;22.98;;;7.00;99.90;;;;;;5091845;28;20024;-54
2022/11/14 06:49:17;;;;;;;33.30;22.38;;;7.00;99.90;;;;;;5090481;28;20039;-54
2022/11/14 06:51:42;;;;;;;35.20;22.92;;;7.00;99.90;;;;;;5091344;28;20032;-52
2022/11/14 06:54:11;;;;;;;35.42;22.38;;;6.90;99.90;;;;;;5091183;28;20388;-53
2022/11/14 06:56:36;;;;;;;37.30;22.70;;;6.90;99.90;;;;;;5091832;28;20146;-55
2022/11/14 06:59:02;;;;;;;34.20;23.13;;;6.90;99.90;;;;;;5091145;28;20103;-52
2022/11/14 07:01:28;;;;;;;35.42;22.83;;;6.90;99.90;;;;;;5091696;28;20032;-53
2022/11/14 07:03:56;;;;;;;35.83;23.73;;;6.90;99.90;;;;;;5090562;28;20089;-55
2022/11/14 07:06:24;;;;;;;36.47;21.45;;;6.90;99.90;;;;;;5091607;28;20060;-53
2022/11/14 07:08:52;;;;;;;34.72;23.42;;;6.90;99.90;;;;;;5089599;28;20036;-52
2022/11/14 07:11:24;;;;;;;40.72;24.77;;;6.90;99.90;;;;;;5089356;28;20020;-55
2022/11/14 07:13:57;;;;;;;36.10;23.13;;;6.90;99.90;;;;;;5087841;28;20081;-55
2022/11/14 07:16:25;;;;;;;37.50;25.02;;;6.90;99.90;;;;;;5090772;28;20027;-52
2022/11/14 07:18:51;;;;;;;35.25;22.77;;;6.80;99.90;;;;;;5091059;28;20038;-51
2022/11/14 07:21:16;;;;;;;37.67;23.65;;;6.80;99.90;;;;;;5091326;28;20023;-56
2022/11/14 07:23:42;;;;;;;34.22;23.23;;;6.80;99.90;;;;;;5090798;28;20051;-52
2022/11/14 07:26:10;;;;;;;43.75;25.73;;;6.90;99.90;;;;;;5068915;28;20024;-53
2022/11/14 07:28:39;;;;;;;36.08;23.80;;;6.80;99.90;;;;;;5091093;28;20020;-55
2022/11/14 07:31:06;;;;;;;40.53;25.60;;;6.80;99.90;;;;;;5090767;28;20031;-54
2022/11/14 07:33:33;;;;;;;36.75;22.63;;;6.80;99.90;;;;;;5090630;28;20012;-54
2022/11/14 07:35:59;;;;;;;40.90;23.17;;;6.80;99.90;;;;;;5091048;28;20094;-51
2022/11/14 07:38:24;;;;;;;41.45;24.45;;;6.80;99.90;;;;;;5090879;28;20482;-53
2022/11/14 07:40:58;;;;;;;37.85;23.95;;;6.80;99.90;;;;;;5091140;28;20055;-54
2022/11/14 07:43:24;;;;;;;38.97;24.58;;;6.80;99.90;;;;;;5083409;28;20461;-51
2022/11/14 07:45:50;;;;;;;44.80;26.30;;;6.70;99.90;;;;;;5089827;28;20024;-56
2022/11/14 07:48:16;;;;;;;39.58;23.60;;;6.70;99.90;;;;;;5089973;28;20395;-51
2022/11/14 07:50:42;;;;;;;42.17;25.48;;;6.70;99.90;;;;;;5091163;28;20070;-54
2022/11/14 07:53:07;;;;;;;40.95;25.38;;;6.80;99.90;;;;;;5090780;28;20043;-51
2022/11/14 07:55:37;;;;;;;40.05;25.23;;;6.70;99.90;;;;;;5089829;28;20039;-54
2022/11/14 07:58:02;;;;;;;43.85;26.30;;;6.70;99.90;;;;;;5090659;28;20409;-53
2022/11/14 08:00:28;;;;;;;40.38;26.17;;;6.80;99.90;;;;;;5088725;28;20120;-51
2022/11/14 08:02:54;;;;;;;45.85;27.02;;;6.80;99.90;;;;;;5089648;28;20487;-52
2022/11/14 08:05:20;;;;;;;43.35;25.38;;;6.80;99.90;;;;;;5088868;28;20038;-52
2022/11/14 08:07:45;;;;;;;46.88;25.70;;;6.70;99.90;;;;;;5089355;28;20020;-56
2022/11/14 08:10:13;;;;;;;44.45;26.80;;;6.70;99.90;;;;;;5089815;28;20028;-54
2022/11/14 08:12:39;;;;;;;46.30;27.35;;;6.70;99.90;;;;;;5089940;28;20032;-55
2022/11/14 08:15:08;;;;;;;42.60;26.38;;;6.70;99.90;;;;;;5072205;28;20508;-53
2022/11/14 08:17:34;;;;;;;42.80;25.45;;;6.70;99.90;;;;;;5084914;28;20016;-52
2022/11/14 08:20:00;;;;;;;44.85;25.17;;;6.70;99.90;;;;;;5089139;28;20024;-54
2022/11/14 08:22:25;;;;;;;44.50;25.73;;;6.70;99.90;;;;;;5089438;28;20058;-52
2022/11/14 08:24:51;;;;;;;42.00;25.45;;;6.70;99.90;;;;;;5089707;28;20021;-52
2022/11/14 08:27:16;;;;;;;44.47;26.05;;;6.60;99.90;;;;;;5090245;28;20024;-55
2022/11/14 08:29:42;;;;;;;44.17;26.15;;;6.60;99.90;;;;;;5089502;28;20095;-52
2022/11/14 08:32:08;;;;;;;44.70;26.95;;;6.60;99.90;;;;;;5064458;28;20059;-55
2022/11/14 08:34:35;;;;;;;44.58;26.30;;;6.60;99.90;;;;;;5090230;28;20081;-54
2022/11/14 08:37:01;;;;;;;47.97;27.25;;;6.60;99.90;;;;;;5088976;28;20020;-54
2022/11/14 08:39:27;;;;;;;41.47;25.92;;;6.60;99.90;;;;;;5083036;28;20333;-55
2022/11/14 08:41:53;;;;;;;40.58;25.20;;;6.50;99.90;;;;;;5077781;28;20024;-52
2022/11/14 08:44:18;;;;;;;44.22;26.65;;;6.50;99.90;;;;;;5078860;28;20593;-56
2022/11/14 08:46:44;;;;;;;45.83;26.67;;;6.60;99.90;;;;;;5074705;28;20483;-51
2022/11/14 08:49:09;;;;;;;46.00;26.17;;;6.50;99.90;;;;;;5074612;28;20107;-54
2022/11/14 08:51:35;;;;;;;43.92;24.42;;;6.60;99.90;;;;;;5077953;28;20059;-55
2022/11/14 08:54:01;;;;;;;46.55;26.60;;;6.60;99.90;;;;;;5089052;28;20028;-51
2022/11/14 08:56:27;;;;;;;43.03;25.52;;;6.60;99.90;;;;;;5089521;28;20020;-54
2022/11/14 08:58:52;;;;;;;44.92;25.17;;;6.60;99.90;;;;;;5089208;28;20035;-56
2022/11/14 09:01:18;;;;;;;45.42;26.52;;;6.60;99.90;;;;;;5089797;28;20483;-55
2022/11/14 09:03:43;;;;;;;43.38;26.38;;;6.60;99.90;;;;;;5089452;28;20054;-56
2022/11/14 09:06:09;;;;;;;42.60;26.02;;;6.70;99.90;;;;;;5089167;28;20054;-55
2022/11/14 09:08:35;;;;;;;39.65;24.35;;;6.60;99.90;;;;;;5079415;28;20462;-54
2022/11/14 09:11:01;;;;;;;40.92;25.90;;;6.70;99.90;;;;;;5089720;28;20020;-52
2022/11/14 09:13:27;;;;;;;40.65;24.75;;;6.60;99.90;;;;;;5088793;28;20031;-55
2022/11/14 09:15:53;;;;;;;43.33;24.65;;;6.60;99.90;;;;;;5089218;28;20024;-53
2022/11/14 09:18:18;;;;;;;44.00;24.75;;;6.70;99.90;;;;;;5088903;28;20035;-51
2022/11/14 09:20:44;;;;;;;43.70;25.02;;;6.70;99.90;;;;;;5089132;28;20013;-55
2022/11/14 09:23:10;;;;;;;39.33;24.15;;;6.70;99.90;;;;;;5088653;28;20450;-54
2022/11/14 09:25:36;;;;;;;37.63;24.60;;;6.70;99.90;;;;;;5089237;28;20483;-52
2022/11/14 09:28:05;;;;;;;41.10;24.38;;;6.70;99.90;;;;;;5088353;28;20024;-54
2022/11/14 09:30:32;;;;;;;43.22;25.42;;;6.70;99.90;;;;;;5089019;28;20035;-54
2022/11/14 09:33:00;;;;;;;45.22;25.92;;;6.70;99.90;;;;;;5088444;28;20039;-57
2022/11/14 09:35:26;;;;;;;41.78;26.08;;;6.70;99.90;;;;;;5089265;28;20024;-56
2022/11/14 09:38:06;;;;;;;46.28;24.80;;;6.70;99.90;;;;;;5087081;28;20024;-56
2022/11/14 09:40:53;;;;;;;44.55;25.48;;;6.70;99.90;;;;;;5088523;28;20031;-55
2022/11/14 09:43:34;;;;;;;42.38;24.40;;;6.70;99.90;;;;;;5086622;28;20036;-53
2022/11/14 09:46:01;;;;;;;41.33;24.75;;;6.70;99.90;;;;;;5089135;28;20148;-55
2022/11/14 09:48:29;;;;;;;50.08;24.65;;;6.70;99.90;;;;;;5064852;28;20445;-52
2022/11/14 09:51:08;;;;;;;48.65;24.52;;;6.80;99.90;;;;;;5088827;28;20020;-56
2022/11/14 09:53:42;;;;;;;38.60;25.30;;;6.80;99.90;;;;;;5087707;28;20537;-54
2022/11/14 09:56:14;;;;;;;42.15;26.08;;;6.80;99.90;;;;;;5087845;28;20103;-56
2022/11/14 09:58:41;;;;;;;39.17;23.88;;;6.90;99.90;;;;;;5088780;28;20016;-54
2022/11/14 10:01:31;;;;;;;40.08;23.20;;;6.80;99.90;;;;;;5070587;28;20028;-56
2022/11/14 10:04:41;;;;;;;41.28;23.52;;;6.80;99.90;;;;;;5086257;28;20612;-56
2022/11/14 10:07:26;;;;;;;40.53;24.33;;;6.90;99.90;;;;;;5069308;28;20090;-55
2022/11/14 10:10:33;;;;;;;41.45;24.75;;;6.90;99.90;;;;;;5088833;28;20051;-56
2022/11/14 10:13:17;;;;;;;42.70;24.33;;;6.90;99.90;;;;;;5085726;28;20026;-56
2022/11/14 10:16:01;;;;;;;39.20;24.13;;;6.90;99.90;;;;;;5064746;28;20020;-57
2022/11/14 10:18:57;;;;;;;37.55;24.08;;;7.00;99.90;;;;;;5082235;28;20385;-56
2022/11/14 10:21:47;;;;;;;44.00;25.10;;;7.00;99.90;;;;;;5075780;28;20119;-56
2022/11/14 10:24:42;;;;;;;43.13;25.23;;;7.00;99.90;;;;;;5088737;28;20088;-53
2022/11/14 10:27:17;;;;;;;44.20;25.20;;;7.00;99.90;;;;;;5088416;28;20031;-57
2022/11/14 10:30:09;;;;;;;38.93;23.67;;;7.00;99.90;;;;;;5088486;28;20036;-54
2022/11/14 10:32:47;;;;;;;42.10;23.95;;;7.00;99.90;;;;;;5083151;28;20269;-55
2022/11/14 10:35:16;;;;;;;43.15;24.80;;;7.10;99.90;;;;;;5088197;28;20051;-54
2022/11/14 10:37:57;;;;;;;41.63;25.08;;;7.10;99.90;;;;;;5067473;28;20017;-55
2022/11/14 10:40:32;;;;;;;37.38;24.02;;;7.10;99.90;;;;;;5081227;28;20024;-57
2022/11/14 10:43:05;;;;;;;38.17;23.30;;;7.10;99.90;;;;;;5088004;28;20024;-57
2022/11/14 10:45:43;;;;;;;39.63;24.83;;;7.20;99.90;;;;;;5070217;28;20282;-56
2022/11/14 10:48:14;;;;;;;38.53;23.92;;;7.20;99.90;;;;;;5088180;28;20089;-51
2022/11/14 10:50:54;;;;;;;43.47;26.23;;;7.20;99.90;;;;;;5088309;28;20043;-55
2022/11/14 10:53:30;;;;;;;38.67;23.23;;;7.30;99.90;;;;;;5088421;28;20090;-53
2022/11/14 10:55:57;;;;;;;38.17;22.60;;;7.30;99.90;;;;;;5091712;28;20032;-50
2022/11/14 10:58:23;;;;;;;38.35;23.65;;;7.40;99.90;;;;;;5091848;28;20028;-50
2022/11/14 11:00:48;;;;;;;37.17;22.60;;;7.40;99.90;;;;;;5092087;28;20112;-56
2022/11/14 11:03:14;;;;;;;37.30;23.23;;;7.40;99.90;;;;;;5091555;28;20028;-55
2022/11/14 11:05:53;;;;;;;35.35;22.38;;;7.40;99.90;;;;;;5091894;28;20576;-53
2022/11/14 11:11:30;;;;;;;36.40;22.65;;;7.50;99.90;;;;;;5090564;28;20513;-53
2022/11/14 11:13:58;;;;;;;38.45;24.45;;;7.60;99.90;;;;;;5091445;28;20020;-53
2022/11/14 11:16:26;;;;;;;39.63;23.30;;;7.60;99.90;;;;;;5091427;28;20399;-56
2022/11/14 11:18:52;;;;;;;36.85;22.75;;;7.70;99.90;;;;;;5091284;28;20160;-56
2022/11/14 11:21:20;;;;;;;35.03;22.08;;;7.70;99.90;;;;;;5076677;28;20032;-53
2022/11/14 11:23:53;;;;;;;35.80;22.60;;;7.80;99.90;;;;;;5087783;28;20037;-56
2022/11/14 11:26:21;;;;;;;35.90;22.33;;;7.80;99.90;;;;;;5083575;28;20055;-58
2022/11/14 11:29:06;;;;;;;33.53;21.10;;;7.90;99.90;;;;;;5091307;28;20152;-55
2022/11/14 11:31:52;;;;;;;34.53;22.25;;;7.90;99.90;;;;;;5090306;28;20023;-53
2022/11/14 11:34:32;;;;;;;33.10;21.95;;;7.90;99.90;;;;;;5085530;28;20024;-56
2022/11/14 11:37:06;;;;;;;33.20;21.77;;;8.00;99.90;;;;;;5086994;28;20024;-56
2022/11/14 11:39:39;;;;;;;30.45;21.48;;;8.00;99.90;;;;;;5087191;28;20016;-56
2022/11/14 11:42:12;;;;;;;32.67;21.35;;;8.00;99.90;;;;;;5090313;28;20012;-55
2022/11/14 11:44:46;;;;;;;38.92;23.80;;;8.00;99.90;;;;;;5088650;28;20434;-54
2022/11/14 11:47:15;;;;;;;35.35;22.08;;;8.00;99.90;;;;;;5090132;28;20085;-54
2022/11/14 11:49:47;;;;;;;35.35;22.58;;;8.10;99.90;;;;;;5090391;28;20050;-55
2022/11/14 11:52:33;;;;;;;31.25;20.95;;;8.10;99.90;;;;;;5090933;28;20107;-52
2022/11/14 11:55:08;;;;;;;;;;;8.10;99.90;;;;;;5068172;28;20039;-57
2022/11/14 11:57:41;;;;;;;32.92;21.38;;;8.20;99.90;;;;;;5072520;28;19908;-54
2022/11/14 12:00:15;;;;;;;33.42;21.25;;;8.20;99.90;;;;;;5089570;28;20031;-56
2022/11/14 12:02:44;;;;;;;34.42;21.83;;;8.20;99.90;;;;;;5090786;28;20069;-57
2022/11/14 12:05:15;;;;;;;34.40;22.58;;;8.20;99.90;;;;;;5090134;28;20031;-56
2022/11/14 12:07:55;;;;;;;36.60;20.20;;;8.30;99.90;;;;;;5091653;28;20035;-56
2022/11/14 12:10:29;;;;;;;35.50;21.67;;;8.40;99.90;;;;;;5086812;28;20024;-56
2022/11/14 12:13:28;;;;;;;28.55;19.38;;;8.30;99.90;;;;;;5090198;28;20012;-57
2022/11/14 12:16:23;;;;;;;32.22;21.58;;;8.30;99.90;;;;;;5087615;28;20038;-56
2022/11/14 12:18:54;;;;;;;30.27;20.48;;;8.40;99.90;;;;;;5090739;28;20024;-56
2022/11/14 12:21:54;;;;;;;30.70;19.83;;;8.40;99.90;;;;;;5082824;28;20024;-57
2022/11/14 12:24:53;;;;;;;33.80;21.92;;;8.40;99.90;;;;;;5089882;28;20478;-53
2022/11/14 12:27:33;;;;;;;35.40;22.17;;;8.50;99.90;;;;;;5086290;28;20027;-53
2022/11/14 12:30:17;;;;;;;30.40;19.80;;;8.50;99.90;;;;;;5082684;28;20093;-57
2022/11/14 12:32:51;;;;;;;32.33;20.30;;;8.50;99.90;;;;;;5089751;28;20525;-55
2022/11/14 12:35:42;;;;;;;31.05;19.45;;;8.50;99.90;;;;;;5081659;28;20031;-57
2022/11/14 12:38:14;;;;;;;34.63;19.52;;;8.50;99.90;;;;;;5089870;28;20404;-57
2022/11/14 12:40:58;;;;;;;32.67;20.17;;;8.60;99.90;;;;;;5089895;28;20027;-56
2022/11/14 12:43:36;;;;;;;31.65;20.23;;;8.60;99.90;;;;;;5088464;28;20024;-56
2022/11/14 12:46:07;;;;;;;36.97;21.45;;;8.60;99.90;;;;;;5089553;28;20028;-58
2022/11/14 12:48:34;;;;;;;31.30;19.60;;;8.70;99.90;;;;;;5089985;28;20019;-57
2022/11/14 12:51:01;;;;;;;29.98;19.60;;;8.70;99.90;;;;;;5089843;28;20028;-57